createdAt,value
2022-10-18T00:01:02.288Z,64.02
2022-10-18T00:03:39.753Z,61.79
2022-10-18T00:06:11.956Z,61.04
2022-10-18T00:08:40.016Z,60.17
2022-10-18T00:11:08.122Z,60.01
2022-10-18T00:13:36.412Z,59.38
2022-10-18T00:16:10.247Z,60.39
2022-10-18T00:18:38.107Z,62.77
2022-10-18T00:21:08.664Z,62.93
2022-10-18T00:23:36.807Z,61.59
2022-10-18T00:26:14.699Z,61.23
2022-10-18T00:28:43.335Z,60.02
2022-10-18T00:31:18.484Z,58.82
2022-10-18T00:33:49.609Z,59.65
2022-10-18T00:36:17.810Z,64.93
2022-10-18T00:38:46.243Z,63.31
2022-10-18T00:41:20.018Z,61.21
2022-10-18T00:43:58.838Z,60.59
2022-10-18T00:46:30.594Z,60.23
2022-10-18T00:49:01.534Z,59.85
2022-10-18T00:51:35.930Z,59.49
2022-10-18T00:54:04.507Z,63.18
2022-10-18T00:56:33.679Z,63.55
2022-10-18T00:59:01.865Z,61.07
2022-10-18T01:01:29.953Z,58.61
2022-10-18T01:03:58.139Z,58.07
2022-10-18T01:06:28.356Z,59.48
2022-10-18T01:09:07.934Z,65.07
2022-10-18T01:11:44.837Z,64.11
2022-10-18T01:14:27.001Z,61.66
2022-10-18T01:16:57.724Z,61.01
2022-10-18T01:19:48.548Z,58.59
2022-10-18T01:22:27.821Z,56.62
2022-10-18T01:24:58.705Z,58.95
2022-10-18T01:27:43.337Z,64.73
2022-10-18T01:30:38.183Z,65.35
2022-10-18T01:33:20.537Z,61.57
2022-10-18T01:35:55.105Z,58.01
2022-10-18T01:38:25.525Z,57.42
2022-10-18T01:40:55.567Z,60.19
2022-10-18T01:43:25.122Z,66.10
2022-10-18T01:45:55.818Z,65.42
2022-10-18T01:48:24.099Z,62.77
2022-10-18T01:50:52.806Z,61.38
2022-10-18T01:53:26.542Z,58.12
2022-10-18T01:56:41.837Z,60.69
2022-10-18T01:59:09.595Z,64.21
2022-10-18T02:01:46.998Z,62.54
2022-10-18T02:04:34.149Z,61.11
2022-10-18T02:07:09.850Z,58.60
2022-10-18T02:09:46.832Z,62.42
2022-10-18T02:12:16.849Z,64.53
2022-10-18T02:14:45.893Z,61.99
2022-10-18T02:17:16.321Z,60.32
2022-10-18T02:19:53.970Z,59.20
2022-10-18T02:22:25.748Z,62.55
2022-10-18T02:24:57.610Z,62.65
2022-10-18T02:27:25.859Z,60.62
2022-10-18T02:29:54.147Z,57.75
2022-10-18T02:32:32.830Z,59.46
2022-10-18T02:35:11.338Z,62.10
2022-10-18T02:37:40.492Z,63.72
2022-10-18T02:40:10.572Z,62.01
2022-10-18T02:42:48.144Z,57.10
2022-10-18T02:45:16.954Z,55.85
2022-10-18T02:47:44.963Z,57.61
2022-10-18T02:50:13.385Z,58.27
2022-10-18T02:52:41.285Z,62.23
2022-10-18T02:55:09.726Z,63.34
2022-10-18T02:57:37.873Z,57.52
2022-10-18T03:00:06.895Z,55.73
2022-10-18T03:02:34.902Z,56.97
2022-10-18T03:05:03.063Z,58.50
2022-10-18T03:07:31.312Z,63.83
2022-10-18T03:09:59.418Z,64.23
2022-10-18T03:12:27.453Z,59.94
2022-10-18T03:14:55.339Z,54.57
2022-10-18T03:17:23.264Z,53.87
2022-10-18T03:19:51.307Z,57.92
2022-10-18T03:22:19.460Z,59.92
2022-10-18T03:24:47.913Z,64.38
2022-10-18T03:27:15.743Z,64.38
2022-10-18T03:29:43.592Z,60.15
2022-10-18T03:32:11.464Z,56.29
2022-10-18T03:34:39.348Z,55.38
2022-10-18T03:37:07.869Z,57.15
2022-10-18T03:39:35.737Z,58.92
2022-10-18T03:42:03.625Z,65.05
2022-10-18T03:44:31.515Z,66.53
2022-10-18T03:46:59.438Z,63.20
2022-10-18T03:49:27.343Z,58.41
2022-10-18T03:51:55.220Z,56.77
2022-10-18T03:54:23.038Z,58.14
2022-10-18T03:56:50.896Z,58.96
2022-10-18T03:59:18.796Z,65.24
2022-10-18T04:01:46.757Z,63.98
2022-10-18T04:04:15.047Z,62.36
2022-10-18T04:06:42.936Z,58.33
2022-10-18T04:09:10.805Z,56.86
2022-10-18T04:11:38.685Z,58.91
2022-10-18T04:14:06.799Z,65.37
2022-10-18T04:19:07.431Z,60.95
2022-10-18T04:21:35.445Z,59.39
2022-10-18T04:24:03.920Z,58.43
2022-10-18T04:26:31.926Z,62.14
2022-10-18T04:28:59.812Z,66.66
2022-10-18T04:31:27.742Z,65.12
2022-10-18T04:33:55.675Z,62.42
2022-10-18T04:36:23.516Z,62.28
2022-10-18T04:38:51.479Z,58.76
2022-10-18T04:41:19.288Z,57.63
2022-10-18T04:43:47.168Z,59.60
2022-10-18T04:46:15.013Z,64.72
2022-10-18T04:48:42.844Z,66.58
2022-10-18T04:51:10.679Z,63.48
2022-10-18T04:53:38.619Z,61.04
2022-10-18T04:56:07.058Z,59.13
2022-10-18T04:58:34.995Z,59.81
2022-10-18T05:01:07.309Z,63.49
2022-10-18T05:03:35.703Z,64.90
2022-10-18T05:06:03.817Z,61.54
2022-10-18T05:08:34.001Z,60.89
2022-10-18T05:11:03.426Z,60.28
2022-10-18T05:13:31.551Z,57.43
2022-10-18T05:16:00.482Z,57.59
2022-10-18T05:18:28.557Z,60.39
2022-10-18T05:21:02.239Z,64.53
2022-10-18T05:23:30.275Z,63.32
2022-10-18T05:26:02.348Z,61.31
2022-10-18T05:28:45.655Z,60.01
2022-10-18T05:31:13.610Z,59.20
2022-10-18T05:33:41.450Z,62.19
2022-10-18T05:36:10.285Z,63.34
2022-10-18T05:38:42.273Z,60.52
2022-10-18T05:41:10.701Z,58.87
2022-10-18T05:43:39.560Z,61.28
2022-10-18T05:46:13.608Z,63.04
2022-10-18T05:48:51.056Z,62.15
2022-10-18T05:51:19.308Z,57.01
2022-10-18T05:53:47.300Z,56.58
2022-10-18T05:56:15.099Z,57.43
2022-10-18T05:58:43.187Z,60.53
2022-10-18T06:01:11.101Z,64.10
2022-10-18T06:03:39.004Z,61.55
2022-10-18T06:06:10.740Z,57.43
2022-10-18T06:08:40.649Z,55.48
2022-10-18T06:11:12.989Z,55.97
2022-10-18T06:13:42.873Z,62.12
2022-10-18T06:16:12.114Z,61.59
2022-10-18T06:18:40.617Z,58.56
2022-10-18T06:21:09.417Z,57.01
2022-10-18T06:23:37.312Z,56.29
2022-10-18T06:26:07.650Z,57.22
2022-10-18T06:28:36.684Z,58.71
2022-10-18T06:31:06.279Z,58.81
2022-10-18T06:33:35.537Z,63.42
2022-10-18T06:36:13.085Z,64.31
2022-10-18T06:38:41.423Z,56.66
2022-10-18T06:41:09.898Z,55.56
2022-10-18T06:43:37.825Z,56.36
2022-10-18T06:46:08.425Z,57.44
2022-10-18T06:48:37.226Z,59.15
2022-10-18T06:51:06.964Z,59.92
2022-10-18T06:53:43.807Z,64.30
2022-10-18T06:56:16.513Z,63.81
2022-10-18T06:58:44.606Z,57.26
2022-10-18T07:01:16.315Z,54.99
2022-10-18T07:03:45.793Z,55.77
2022-10-18T07:06:15.612Z,56.69
2022-10-18T07:08:44.099Z,58.72
2022-10-18T07:11:20.873Z,58.38
2022-10-18T07:13:48.713Z,59.51
2022-10-18T07:16:18.959Z,59.71
2022-10-18T07:18:51.146Z,64.75
2022-10-18T07:21:21.476Z,64.13
2022-10-18T07:23:50.098Z,56.95
2022-10-18T07:26:29.955Z,54.44
2022-10-18T07:29:16.060Z,54.92
2022-10-18T07:31:43.939Z,56.03
2022-10-18T07:34:13.229Z,56.72
2022-10-18T07:36:41.552Z,57.47
2022-10-18T07:39:10.253Z,57.92
2022-10-18T07:41:38.310Z,58.84
2022-10-18T07:44:06.401Z,59.90
2022-10-18T07:46:34.464Z,59.92
2022-10-18T07:49:02.344Z,60.19
2022-10-18T07:51:32.874Z,59.91
2022-10-18T07:54:00.727Z,60.35
2022-10-18T07:56:28.647Z,60.75
2022-10-18T07:58:57.158Z,62.32
2022-10-18T08:01:25.739Z,62.62
2022-10-18T08:03:54.778Z,59.15
2022-10-18T08:06:23.636Z,56.38
2022-10-18T08:08:52.402Z,56.45
2022-10-18T08:11:22.992Z,58.15
2022-10-18T08:13:51.777Z,57.30
2022-10-18T08:16:22.570Z,58.00
2022-10-18T08:18:51.128Z,57.78
2022-10-18T08:21:20.919Z,59.96
2022-10-18T08:23:49.293Z,59.30
2022-10-18T08:26:20.596Z,58.54
2022-10-18T08:28:54.130Z,57.82
2022-10-18T08:31:26.764Z,58.09
2022-10-18T08:33:57.139Z,58.05
2022-10-18T08:36:25.262Z,57.96
2022-10-18T08:38:53.110Z,57.19
2022-10-18T08:41:29.807Z,56.72
2022-10-18T08:44:16.525Z,56.91
2022-10-18T08:46:51.106Z,56.48
2022-10-18T08:49:30.257Z,56.66
2022-10-18T08:51:58.677Z,56.64
2022-10-18T08:54:39.655Z,55.66
2022-10-18T08:57:15.824Z,55.02
2022-10-18T08:59:44.259Z,54.27
2022-10-18T09:02:54.573Z,53.85
2022-10-18T09:05:30.784Z,53.17
2022-10-18T09:08:09.741Z,53.41
2022-10-18T09:10:49.539Z,52.87
2022-10-18T09:13:55.332Z,52.51
2022-10-18T09:16:32.534Z,51.83
2022-10-18T09:19:21.830Z,51.70
2022-10-18T09:22:00.953Z,51.44
2022-10-18T09:24:46.560Z,51.40
2022-10-18T09:27:18.342Z,51.31
2022-10-18T09:30:05.549Z,51.45
2022-10-18T09:32:43.516Z,51.32
2022-10-18T09:35:19.610Z,50.92
2022-10-18T09:37:47.699Z,51.21
2022-10-18T09:40:29.109Z,50.27
2022-10-18T09:43:01.442Z,50.33
2022-10-18T09:45:33.164Z,49.40
2022-10-18T09:48:08.725Z,49.40
2022-10-18T09:50:55.410Z,49.30
2022-10-18T09:53:54.642Z,49.40
2022-10-18T09:56:29.732Z,48.98
2022-10-18T09:58:57.598Z,48.41
2022-10-18T10:01:28.913Z,48.40
2022-10-18T10:03:57.227Z,47.91
2022-10-18T10:06:26.813Z,48.35
2022-10-18T10:08:59.868Z,47.68
2022-10-18T10:11:45.913Z,48.63
2022-10-18T10:14:23.158Z,48.07
2022-10-18T10:16:54.031Z,46.85
2022-10-18T10:19:27.692Z,47.08
2022-10-18T10:22:00.703Z,45.98
2022-10-18T10:24:47.570Z,45.01
2022-10-18T10:27:24.777Z,45.54
2022-10-18T10:29:57.695Z,44.87
2022-10-18T10:32:30.110Z,45.34
2022-10-18T10:34:58.843Z,44.34
2022-10-18T10:37:32.090Z,43.55
2022-10-18T10:40:19.802Z,43.65
2022-10-18T10:43:08.723Z,44.22
2022-10-18T10:46:10.170Z,44.18
2022-10-18T10:48:47.515Z,44.04
2022-10-18T10:51:18.929Z,43.99
2022-10-18T10:54:01.214Z,44.42
2022-10-18T10:56:32.672Z,43.74
2022-10-18T10:59:15.923Z,43.43
2022-10-18T11:01:45.300Z,43.40
2022-10-18T11:04:29.541Z,42.56
2022-10-18T11:07:04.586Z,41.82
2022-10-18T11:10:10.848Z,41.82
2022-10-18T11:12:47.896Z,42.08
2022-10-18T11:15:40.460Z,41.67
2022-10-18T11:18:19.792Z,41.44
2022-10-18T11:20:53.108Z,41.34
2022-10-18T11:23:25.646Z,40.93
2022-10-18T11:25:56.358Z,40.59
2022-10-18T11:28:32.894Z,40.48
2022-10-18T11:31:21.339Z,40.35
2022-10-18T11:34:10.413Z,39.77
2022-10-18T11:36:45.324Z,39.14
2022-10-18T11:39:42.168Z,39.27
2022-10-18T11:42:44.446Z,39.00
2022-10-18T11:45:45.759Z,39.12
2022-10-18T11:48:34.477Z,39.28
2022-10-18T11:51:10.585Z,38.21
2022-10-18T11:54:03.319Z,37.73
2022-10-18T11:56:48.737Z,37.96
2022-10-18T11:59:25.708Z,37.77
2022-10-18T12:02:16.097Z,38.45
2022-10-18T12:04:59.833Z,38.68
2022-10-18T12:07:53.367Z,38.34
2022-10-18T12:10:31.724Z,37.59
2022-10-18T12:13:23.466Z,37.60
2022-10-18T12:15:52.290Z,36.69
2022-10-18T12:18:23.842Z,37.32
2022-10-18T12:20:55.450Z,37.83
2022-10-18T12:23:33.445Z,38.28
2022-10-18T12:26:04.086Z,38.42
2022-10-18T12:28:38.455Z,38.30
2022-10-18T12:31:25.666Z,38.03
2022-10-18T12:33:58.877Z,37.84
2022-10-18T12:36:57.567Z,37.89
2022-10-18T12:39:43.381Z,38.29
2022-10-18T12:42:20.209Z,37.96
2022-10-18T12:44:49.258Z,37.40
2022-10-18T12:47:25.626Z,37.63
2022-10-18T12:49:59.087Z,36.80
2022-10-18T12:52:29.987Z,37.04
2022-10-18T12:55:21.142Z,37.06
2022-10-18T12:57:52.100Z,37.51
2022-10-18T13:00:31.967Z,37.07
2022-10-18T13:03:18.134Z,37.21
2022-10-18T13:05:54.737Z,37.06
2022-10-18T13:08:29.284Z,37.21
2022-10-18T13:11:09.131Z,37.81
2022-10-18T13:13:52.929Z,37.77
2022-10-18T13:16:20.839Z,37.67
2022-10-18T13:18:59.697Z,37.45
2022-10-18T13:21:42.775Z,37.21
2022-10-18T13:24:30.547Z,37.33
2022-10-18T13:27:35.933Z,37.45
2022-10-18T13:30:42.067Z,37.61
2022-10-18T13:33:35.630Z,37.61
2022-10-18T13:36:22.914Z,37.60
2022-10-18T13:38:55.933Z,38.00
2022-10-18T13:41:47.057Z,37.67
2022-10-18T13:44:28.856Z,37.56
2022-10-18T13:46:56.619Z,37.29
2022-10-18T13:49:39.791Z,37.19
2022-10-18T13:52:38.203Z,37.15
2022-10-18T13:55:21.367Z,37.46
2022-10-18T13:58:04.303Z,38.04
2022-10-18T14:01:02.307Z,38.37
2022-10-18T14:04:01.679Z,38.43
2022-10-18T14:06:37.397Z,38.31
2022-10-18T14:09:45.305Z,38.23
2022-10-18T14:12:28.998Z,38.19
2022-10-18T14:15:05.820Z,38.31
2022-10-18T14:17:44.848Z,38.68
2022-10-18T14:20:29.433Z,39.10
2022-10-18T14:23:14.114Z,39.42
2022-10-18T14:25:42.730Z,39.75
2022-10-18T14:28:15.096Z,40.30
2022-10-18T14:31:06.358Z,41.15
2022-10-18T14:33:48.082Z,42.00
2022-10-18T14:36:22.423Z,42.54
2022-10-18T14:39:05.704Z,42.86
2022-10-18T14:41:35.857Z,43.14
2022-10-18T14:44:31.542Z,43.62
2022-10-18T14:47:13.114Z,43.67
2022-10-18T14:49:45.770Z,42.99
2022-10-18T14:52:17.458Z,41.89
2022-10-18T14:54:45.988Z,40.56
2022-10-18T14:57:24.517Z,39.83
2022-10-18T15:00:02.051Z,39.27
2022-10-18T15:02:32.715Z,38.82
2022-10-18T15:05:21.190Z,38.04
2022-10-18T15:07:51.980Z,38.11
2022-10-18T15:10:27.465Z,38.50
2022-10-18T15:13:16.745Z,39.21
2022-10-18T15:15:45.128Z,40.04
2022-10-18T15:18:21.447Z,40.59
2022-10-18T15:21:08.339Z,40.85
2022-10-18T15:23:36.320Z,41.00
2022-10-18T15:26:11.195Z,41.98
2022-10-18T15:28:53.155Z,43.05
2022-10-18T15:31:26.544Z,44.19
2022-10-18T15:34:07.839Z,45.33
2022-10-18T15:36:36.085Z,46.18
2022-10-18T15:39:15.455Z,47.15
2022-10-18T15:41:50.537Z,48.39
2022-10-18T15:44:23.082Z,48.87
2022-10-18T15:46:56.867Z,49.13
2022-10-18T15:49:24.728Z,50.11
2022-10-18T15:52:17.081Z,50.69
2022-10-18T15:54:44.874Z,51.21
2022-10-18T15:57:13.120Z,51.55
2022-10-18T15:59:54.091Z,51.33
2022-10-18T16:02:22.017Z,51.46
2022-10-18T16:04:50.017Z,51.83
2022-10-18T16:07:17.817Z,52.33
2022-10-18T16:09:45.741Z,52.52
2022-10-18T16:12:16.238Z,52.83
2022-10-18T16:14:44.089Z,53.20
2022-10-18T16:17:17.020Z,53.37
2022-10-18T16:19:44.868Z,53.76
2022-10-18T16:24:46.045Z,54.64
2022-10-18T16:27:14.811Z,54.96
2022-10-18T16:29:42.695Z,55.20
2022-10-18T16:32:10.507Z,54.99
2022-10-18T16:34:38.341Z,55.30
2022-10-18T16:37:06.540Z,55.80
2022-10-18T16:39:35.462Z,56.01
2022-10-18T16:42:03.557Z,55.98
2022-10-18T16:44:31.542Z,56.47
2022-10-18T16:46:59.526Z,56.74
2022-10-18T16:49:27.415Z,56.73
2022-10-18T16:51:55.712Z,57.01
2022-10-18T16:54:23.717Z,57.05
2022-10-18T16:56:51.643Z,57.44
2022-10-18T16:59:37.423Z,57.67
2022-10-18T17:02:09.170Z,57.63
2022-10-18T17:04:36.957Z,57.58
2022-10-18T17:07:05.264Z,57.71
2022-10-18T17:09:34.981Z,57.62
2022-10-18T17:12:02.808Z,57.82
2022-10-18T17:14:30.726Z,57.85
2022-10-18T17:17:52.345Z,58.06
2022-10-18T17:20:24.355Z,58.00
2022-10-18T17:22:54.014Z,57.85
2022-10-18T17:28:05.033Z,57.54
2022-10-18T17:30:34.060Z,57.59
2022-10-18T17:33:01.876Z,57.56
2022-10-18T17:35:30.019Z,57.63
2022-10-18T17:37:57.935Z,57.64
2022-10-18T17:40:25.770Z,57.56
2022-10-18T17:42:54.537Z,57.52
2022-10-18T17:45:22.645Z,57.43
2022-10-18T17:47:50.533Z,57.40
2022-10-18T17:50:18.758Z,57.24
2022-10-18T17:52:48.015Z,57.15
2022-10-18T17:55:16.465Z,57.12
2022-10-18T17:57:44.334Z,57.00
2022-10-18T18:00:13.098Z,56.97
2022-10-18T18:02:42.737Z,56.84
2022-10-18T18:05:11.030Z,56.80
2022-10-18T18:07:38.846Z,56.89
2022-10-18T18:10:06.897Z,56.89
2022-10-18T18:12:35.049Z,56.85
2022-10-18T18:15:03.580Z,56.94
2022-10-18T18:17:34.494Z,57.07
2022-10-18T18:20:14.184Z,57.27
2022-10-18T18:22:44.222Z,57.36
2022-10-18T18:25:12.415Z,57.63
2022-10-18T18:27:40.914Z,57.61
2022-10-18T18:30:09.033Z,58.07
2022-10-18T18:32:37.932Z,58.34
2022-10-18T18:35:06.113Z,58.52
2022-10-18T18:37:33.970Z,58.53
2022-10-18T18:40:01.847Z,58.66
2022-10-18T18:42:29.768Z,58.87
2022-10-18T18:44:57.709Z,59.11
2022-10-18T18:47:27.181Z,59.25
2022-10-18T18:49:54.983Z,59.37
2022-10-18T18:52:23.008Z,59.66
2022-10-18T18:54:50.823Z,59.78
2022-10-18T18:57:18.672Z,59.92
2022-10-18T18:59:46.538Z,60.23
2022-10-18T19:02:14.411Z,60.50
2022-10-18T19:04:42.414Z,60.66
2022-10-18T19:07:10.306Z,61.28
2022-10-18T19:09:40.114Z,61.50
2022-10-18T19:12:08.102Z,61.92
2022-10-18T19:14:35.993Z,62.64
2022-10-18T19:17:07.162Z,61.67
2022-10-18T19:19:35.219Z,57.15
2022-10-18T19:22:08.467Z,56.68
2022-10-18T19:24:36.564Z,58.43
2022-10-18T19:27:11.865Z,60.04
2022-10-18T19:29:40.977Z,61.32
2022-10-18T19:32:13.466Z,62.99
2022-10-18T19:34:41.645Z,60.76
2022-10-18T19:37:12.203Z,58.54
2022-10-18T19:39:40.107Z,59.54
2022-10-18T19:42:14.715Z,61.70
2022-10-18T19:44:45.241Z,63.67
2022-10-18T19:47:14.438Z,60.17
2022-10-18T19:49:43.106Z,58.99
2022-10-18T19:52:12.421Z,61.28
2022-10-18T19:54:40.363Z,64.03
2022-10-18T19:57:08.342Z,64.17
2022-10-18T19:59:36.285Z,63.20
2022-10-18T20:02:04.843Z,63.06
2022-10-18T20:04:34.926Z,63.95
2022-10-18T20:07:03.024Z,64.75
2022-10-18T20:09:31.107Z,64.34
2022-10-18T20:11:59.021Z,64.55
2022-10-18T20:14:26.891Z,64.35
2022-10-18T20:16:54.768Z,64.35
2022-10-18T20:19:22.617Z,65.40
2022-10-18T20:21:50.465Z,64.49
2022-10-18T20:24:18.402Z,64.49
2022-10-18T20:26:46.273Z,64.90
2022-10-18T20:29:14.396Z,63.71
2022-10-18T20:31:42.274Z,65.70
2022-10-18T20:34:12.021Z,65.34
2022-10-18T20:36:40.518Z,65.19
2022-10-18T20:39:09.189Z,65.73
2022-10-18T20:41:41.142Z,65.76
2022-10-18T20:44:14.019Z,66.86
2022-10-18T20:46:42.500Z,67.26
2022-10-18T20:49:13.815Z,66.79
2022-10-18T20:51:42.246Z,66.88
2022-10-18T20:54:10.894Z,67.37
2022-10-18T20:56:39.195Z,67.48
2022-10-18T20:59:09.839Z,66.25
2022-10-18T21:01:39.586Z,66.85
2022-10-18T21:04:09.662Z,65.38
2022-10-18T21:06:41.132Z,65.34
2022-10-18T21:09:20.188Z,66.04
2022-10-18T21:11:50.469Z,66.67
2022-10-18T21:14:20.749Z,65.42
2022-10-18T21:16:50.441Z,66.15
2022-10-18T21:19:26.821Z,65.80
2022-10-18T21:21:56.940Z,65.98
2022-10-18T21:24:25.933Z,66.53
2022-10-18T21:26:54.855Z,66.62
2022-10-18T21:29:27.050Z,66.87
2022-10-18T21:31:56.022Z,67.28
2022-10-18T21:34:23.933Z,67.99
2022-10-18T21:36:51.865Z,67.01
2022-10-18T21:41:50.769Z,63.90
2022-10-18T21:44:18.708Z,63.50
2022-10-18T21:46:46.984Z,64.58
2022-10-18T21:49:15.742Z,64.49
2022-10-18T21:51:44.063Z,64.98
2022-10-18T21:54:14.573Z,65.25
2022-10-18T21:56:42.748Z,64.16
2022-10-18T21:59:14.228Z,63.91
2022-10-18T22:01:44.253Z,62.83
2022-10-18T22:04:24.014Z,61.12
2022-10-18T22:06:52.236Z,61.25
2022-10-18T22:09:21.430Z,61.78
2022-10-18T22:11:52.305Z,61.29
2022-10-18T22:14:20.933Z,61.59
2022-10-18T22:16:48.840Z,62.10
2022-10-18T22:19:16.899Z,61.97
2022-10-18T22:21:44.796Z,61.32
2022-10-18T22:24:12.649Z,61.59
2022-10-18T22:26:42.569Z,61.68
2022-10-18T22:29:16.818Z,60.71
2022-10-18T22:31:47.329Z,60.72
2022-10-18T22:34:19.021Z,60.00
2022-10-18T22:36:46.878Z,60.00
2022-10-18T22:39:15.670Z,59.65
2022-10-18T22:41:44.066Z,60.50
2022-10-18T22:44:13.457Z,65.17
2022-10-18T22:46:42.102Z,64.52
2022-10-18T22:49:11.648Z,62.31
2022-10-18T22:51:40.476Z,62.06
2022-10-18T22:54:08.863Z,61.29
2022-10-18T22:56:36.727Z,60.27
2022-10-18T22:59:04.543Z,60.04
2022-10-18T23:01:32.434Z,58.44
2022-10-18T23:04:01.220Z,58.94
2022-10-18T23:06:31.937Z,64.28
2022-10-18T23:09:02.404Z,65.14
2022-10-18T23:11:30.523Z,63.05
2022-10-18T23:13:58.970Z,61.85
2022-10-18T23:16:27.828Z,60.56
2022-10-18T23:18:57.523Z,60.34
2022-10-18T23:21:28.135Z,58.27
2022-10-18T23:23:56.977Z,58.83
2022-10-18T23:26:27.545Z,64.29
2022-10-18T23:28:55.870Z,63.56
2022-10-18T23:31:29.690Z,62.54
2022-10-18T23:34:00.424Z,60.80
2022-10-18T23:36:28.465Z,58.79
2022-10-18T23:38:56.647Z,60.17
2022-10-18T23:41:25.126Z,66.02
2022-10-18T23:43:53.628Z,65.14
2022-10-18T23:46:22.020Z,62.65
2022-10-18T23:48:50.323Z,60.96
2022-10-18T23:51:18.356Z,60.27
2022-10-18T23:53:46.566Z,59.14
2022-10-18T23:56:16.392Z,60.17
2022-10-18T23:58:45.252Z,66.01
